sensor_id;sensor_type;location;lat;lon;timestamp;temperature;humidity
41058;DHT22;27499;48.884;2.258;2022-08-21T00:02:22;20.80;97.00
41058;DHT22;27499;48.884;2.258;2022-08-21T00:04:49;20.80;97.10
41058;DHT22;27499;48.884;2.258;2022-08-21T00:07:23;20.80;97.30
41058;DHT22;27499;48.884;2.258;2022-08-21T00:09:51;20.80;97.30
41058;DHT22;27499;48.884;2.258;2022-08-21T00:12:18;20.80;97.20
41058;DHT22;27499;48.884;2.258;2022-08-21T00:14:45;20.80;97.30
41058;DHT22;27499;48.884;2.258;2022-08-21T00:17:12;20.80;97.50
41058;DHT22;27499;48.884;2.258;2022-08-21T00:19:39;20.80;97.20
41058;DHT22;27499;48.884;2.258;2022-08-21T00:22:06;20.80;97.30
41058;DHT22;27499;48.884;2.258;2022-08-21T00:24:33;20.70;97.40
41058;DHT22;27499;48.884;2.258;2022-08-21T00:27:00;20.70;97.30
41058;DHT22;27499;48.884;2.258;2022-08-21T00:29:27;20.60;97.50
41058;DHT22;27499;48.884;2.258;2022-08-21T00:31:54;20.60;97.50
41058;DHT22;27499;48.884;2.258;2022-08-21T00:34:21;20.70;97.60
41058;DHT22;27499;48.884;2.258;2022-08-21T00:36:48;20.60;97.70
41058;DHT22;27499;48.884;2.258;2022-08-21T00:39:15;20.60;97.50
41058;DHT22;27499;48.884;2.258;2022-08-21T00:41:42;20.60;97.60
41058;DHT22;27499;48.884;2.258;2022-08-21T00:44:12;20.60;97.80
41058;DHT22;27499;48.884;2.258;2022-08-21T00:46:40;20.60;97.90
41058;DHT22;27499;48.884;2.258;2022-08-21T00:49:08;20.60;97.80
41058;DHT22;27499;48.884;2.258;2022-08-21T00:51:39;20.60;98.10
41058;DHT22;27499;48.884;2.258;2022-08-21T00:54:08;20.50;97.90
41058;DHT22;27499;48.884;2.258;2022-08-21T00:56:49;20.50;97.80
41058;DHT22;27499;48.884;2.258;2022-08-21T00:59:19;20.50;97.80
41058;DHT22;27499;48.884;2.258;2022-08-21T01:01:47;20.50;97.80
41058;DHT22;27499;48.884;2.258;2022-08-21T01:04:15;20.50;97.80
41058;DHT22;27499;48.884;2.258;2022-08-21T01:06:43;20.50;97.90
41058;DHT22;27499;48.884;2.258;2022-08-21T01:09:10;20.50;98.10
41058;DHT22;27499;48.884;2.258;2022-08-21T01:11:37;20.50;98.10
41058;DHT22;27499;48.884;2.258;2022-08-21T01:14:05;20.40;98.10
41058;DHT22;27499;48.884;2.258;2022-08-21T01:16:32;20.40;98.10
41058;DHT22;27499;48.884;2.258;2022-08-21T01:18:59;20.40;98.50
41058;DHT22;27499;48.884;2.258;2022-08-21T01:21:26;20.40;98.10
41058;DHT22;27499;48.884;2.258;2022-08-21T01:23:55;20.40;98.00
41058;DHT22;27499;48.884;2.258;2022-08-21T01:26:30;20.50;98.50
41058;DHT22;27499;48.884;2.258;2022-08-21T01:29:02;20.40;98.10
41058;DHT22;27499;48.884;2.258;2022-08-21T01:31:30;20.40;98.30
41058;DHT22;27499;48.884;2.258;2022-08-21T01:33:58;20.40;98.00
41058;DHT22;27499;48.884;2.258;2022-08-21T01:36:26;20.40;98.20
41058;DHT22;27499;48.884;2.258;2022-08-21T01:38:53;20.40;98.60
41058;DHT22;27499;48.884;2.258;2022-08-21T01:41:20;20.30;98.20
41058;DHT22;27499;48.884;2.258;2022-08-21T01:43:47;20.40;98.30
41058;DHT22;27499;48.884;2.258;2022-08-21T01:46:15;20.40;98.20
41058;DHT22;27499;48.884;2.258;2022-08-21T01:48:42;20.30;98.30
41058;DHT22;27499;48.884;2.258;2022-08-21T01:51:11;20.30;98.70
41058;DHT22;27499;48.884;2.258;2022-08-21T01:53:38;20.30;98.40
41058;DHT22;27499;48.884;2.258;2022-08-21T01:56:09;20.30;98.40
41058;DHT22;27499;48.884;2.258;2022-08-21T01:58:42;20.30;98.90
41058;DHT22;27499;48.884;2.258;2022-08-21T02:01:09;20.30;98.60
41058;DHT22;27499;48.884;2.258;2022-08-21T02:03:37;20.30;98.80
41058;DHT22;27499;48.884;2.258;2022-08-21T02:06:05;20.20;98.80
41058;DHT22;27499;48.884;2.258;2022-08-21T02:08:33;20.20;99.00
41058;DHT22;27499;48.884;2.258;2022-08-21T02:11:00;20.20;98.70
41058;DHT22;27499;48.884;2.258;2022-08-21T02:13:28;20.20;98.70
41058;DHT22;27499;48.884;2.258;2022-08-21T02:15:54;20.20;98.80
41058;DHT22;27499;48.884;2.258;2022-08-21T02:18:21;20.20;98.70
41058;DHT22;27499;48.884;2.258;2022-08-21T02:20:49;20.20;98.90
41058;DHT22;27499;48.884;2.258;2022-08-21T02:23:23;20.10;98.90
41058;DHT22;27499;48.884;2.258;2022-08-21T02:25:57;20.10;99.20
41058;DHT22;27499;48.884;2.258;2022-08-21T02:28:25;20.10;99.30
41058;DHT22;27499;48.884;2.258;2022-08-21T02:30:54;20.10;98.90
41058;DHT22;27499;48.884;2.258;2022-08-21T02:33:22;20.10;99.00
41058;DHT22;27499;48.884;2.258;2022-08-21T02:35:50;20.10;98.90
41058;DHT22;27499;48.884;2.258;2022-08-21T02:38:23;20.10;98.80
41058;DHT22;27499;48.884;2.258;2022-08-21T02:40:51;20.10;99.00
41058;DHT22;27499;48.884;2.258;2022-08-21T02:43:20;20.10;99.20
41058;DHT22;27499;48.884;2.258;2022-08-21T02:45:48;20.10;99.30
41058;DHT22;27499;48.884;2.258;2022-08-21T02:48:21;20.10;99.50
41058;DHT22;27499;48.884;2.258;2022-08-21T02:50:53;20.00;99.40
41058;DHT22;27499;48.884;2.258;2022-08-21T02:53:21;20.00;99.70
41058;DHT22;27499;48.884;2.258;2022-08-21T02:55:50;20.00;99.60
41058;DHT22;27499;48.884;2.258;2022-08-21T02:58:20;20.00;99.90
41058;DHT22;27499;48.884;2.258;2022-08-21T03:00:47;20.00;99.80
41058;DHT22;27499;48.884;2.258;2022-08-21T03:03:14;20.00;99.90
41058;DHT22;27499;48.884;2.258;2022-08-21T03:05:42;20.00;99.90
41058;DHT22;27499;48.884;2.258;2022-08-21T03:08:11;19.90;99.70
41058;DHT22;27499;48.884;2.258;2022-08-21T03:10:42;19.90;99.90
41058;DHT22;27499;48.884;2.258;2022-08-21T03:13:10;19.90;99.90
41058;DHT22;27499;48.884;2.258;2022-08-21T03:15:38;19.90;99.90
41058;DHT22;27499;48.884;2.258;2022-08-21T03:18:06;19.90;99.90
41058;DHT22;27499;48.884;2.258;2022-08-21T03:20:34;19.90;99.90
41058;DHT22;27499;48.884;2.258;2022-08-21T03:23:03;19.80;99.90
41058;DHT22;27499;48.884;2.258;2022-08-21T03:25:39;19.80;99.90
41058;DHT22;27499;48.884;2.258;2022-08-21T03:28:14;19.80;99.90
41058;DHT22;27499;48.884;2.258;2022-08-21T03:30:43;19.70;99.90
41058;DHT22;27499;48.884;2.258;2022-08-21T03:33:11;19.60;99.90
41058;DHT22;27499;48.884;2.258;2022-08-21T03:35:46;19.70;99.90
41058;DHT22;27499;48.884;2.258;2022-08-21T03:38:14;19.70;99.90
41058;DHT22;27499;48.884;2.258;2022-08-21T03:40:42;19.70;99.90
41058;DHT22;27499;48.884;2.258;2022-08-21T03:43:09;19.60;99.90
41058;DHT22;27499;48.884;2.258;2022-08-21T03:45:37;19.60;99.90
41058;DHT22;27499;48.884;2.258;2022-08-21T03:48:05;19.60;99.90
41058;DHT22;27499;48.884;2.258;2022-08-21T03:50:36;19.50;99.90
41058;DHT22;27499;48.884;2.258;2022-08-21T03:53:08;19.50;99.90
41058;DHT22;27499;48.884;2.258;2022-08-21T03:55:47;19.50;99.90
41058;DHT22;27499;48.884;2.258;2022-08-21T03:58:16;19.50;99.90
41058;DHT22;27499;48.884;2.258;2022-08-21T04:00:45;19.50;99.90
41058;DHT22;27499;48.884;2.258;2022-08-21T04:03:13;19.40;99.90
41058;DHT22;27499;48.884;2.258;2022-08-21T04:05:40;19.40;99.90
41058;DHT22;27499;48.884;2.258;2022-08-21T04:08:08;19.40;99.90
41058;DHT22;27499;48.884;2.258;2022-08-21T04:10:36;19.40;99.90
41058;DHT22;27499;48.884;2.258;2022-08-21T04:13:05;19.40;99.90
41058;DHT22;27499;48.884;2.258;2022-08-21T04:15:33;19.30;99.90
41058;DHT22;27499;48.884;2.258;2022-08-21T04:18:00;19.30;99.90
41058;DHT22;27499;48.884;2.258;2022-08-21T04:20:27;19.30;99.90
41058;DHT22;27499;48.884;2.258;2022-08-21T04:22:54;19.30;99.90
41058;DHT22;27499;48.884;2.258;2022-08-21T04:25:23;19.30;99.90
41058;DHT22;27499;48.884;2.258;2022-08-21T04:27:50;19.30;99.90
41058;DHT22;27499;48.884;2.258;2022-08-21T04:30:17;19.30;99.90
41058;DHT22;27499;48.884;2.258;2022-08-21T04:32:46;19.30;99.90
41058;DHT22;27499;48.884;2.258;2022-08-21T04:35:18;19.30;99.90
41058;DHT22;27499;48.884;2.258;2022-08-21T04:37:45;19.20;99.90
41058;DHT22;27499;48.884;2.258;2022-08-21T04:40:14;19.20;99.90
41058;DHT22;27499;48.884;2.258;2022-08-21T04:42:44;19.20;99.90
41058;DHT22;27499;48.884;2.258;2022-08-21T04:45:39;19.20;99.90
41058;DHT22;27499;48.884;2.258;2022-08-21T04:48:08;19.20;99.90
41058;DHT22;27499;48.884;2.258;2022-08-21T04:50:45;19.20;99.90
41058;DHT22;27499;48.884;2.258;2022-08-21T04:53:20;19.20;99.90
41058;DHT22;27499;48.884;2.258;2022-08-21T04:55:49;19.20;99.90
41058;DHT22;27499;48.884;2.258;2022-08-21T04:58:20;19.20;99.90
41058;DHT22;27499;48.884;2.258;2022-08-21T05:00:49;19.20;99.90
41058;DHT22;27499;48.884;2.258;2022-08-21T05:03:18;19.20;99.90
41058;DHT22;27499;48.884;2.258;2022-08-21T05:05:45;19.20;99.90
41058;DHT22;27499;48.884;2.258;2022-08-21T05:08:15;19.10;99.90
41058;DHT22;27499;48.884;2.258;2022-08-21T05:10:42;19.10;99.90
41058;DHT22;27499;48.884;2.258;2022-08-21T05:13:12;19.10;99.90
41058;DHT22;27499;48.884;2.258;2022-08-21T05:15:39;19.10;99.90
41058;DHT22;27499;48.884;2.258;2022-08-21T05:18:06;19.10;99.90
41058;DHT22;27499;48.884;2.258;2022-08-21T05:20:34;19.00;99.90
41058;DHT22;27499;48.884;2.258;2022-08-21T05:23:05;19.10;99.90
41058;DHT22;27499;48.884;2.258;2022-08-21T05:25:34;19.00;99.90
41058;DHT22;27499;48.884;2.258;2022-08-21T05:28:01;19.10;99.90
41058;DHT22;27499;48.884;2.258;2022-08-21T05:30:28;19.10;99.90
41058;DHT22;27499;48.884;2.258;2022-08-21T05:32:57;19.00;99.90
41058;DHT22;27499;48.884;2.258;2022-08-21T05:35:26;19.00;99.90
41058;DHT22;27499;48.884;2.258;2022-08-21T05:37:53;19.00;99.90
41058;DHT22;27499;48.884;2.258;2022-08-21T05:40:20;19.00;99.90
41058;DHT22;27499;48.884;2.258;2022-08-21T05:42:53;18.90;99.90
41058;DHT22;27499;48.884;2.258;2022-08-21T05:45:27;18.90;99.90
41058;DHT22;27499;48.884;2.258;2022-08-21T05:48:12;18.90;99.90
41058;DHT22;27499;48.884;2.258;2022-08-21T05:50:40;18.90;99.90
41058;DHT22;27499;48.884;2.258;2022-08-21T05:53:08;18.90;99.90
41058;DHT22;27499;48.884;2.258;2022-08-21T05:55:36;18.90;99.90
41058;DHT22;27499;48.884;2.258;2022-08-21T05:58:10;19.00;99.90
41058;DHT22;27499;48.884;2.258;2022-08-21T06:00:37;19.00;99.90
41058;DHT22;27499;48.884;2.258;2022-08-21T06:03:04;19.00;99.90
41058;DHT22;27499;48.884;2.258;2022-08-21T06:05:36;19.00;99.90
41058;DHT22;27499;48.884;2.258;2022-08-21T06:08:04;19.00;99.90
41058;DHT22;27499;48.884;2.258;2022-08-21T06:10:31;19.00;99.90
41058;DHT22;27499;48.884;2.258;2022-08-21T06:12:58;19.10;99.90
41058;DHT22;27499;48.884;2.258;2022-08-21T06:15:25;19.10;99.90
41058;DHT22;27499;48.884;2.258;2022-08-21T06:17:53;19.20;99.90
41058;DHT22;27499;48.884;2.258;2022-08-21T06:20:21;19.20;99.90
41058;DHT22;27499;48.884;2.258;2022-08-21T06:22:48;19.20;99.90
41058;DHT22;27499;48.884;2.258;2022-08-21T06:25:15;19.30;99.90
41058;DHT22;27499;48.884;2.258;2022-08-21T06:27:42;19.30;99.90
41058;DHT22;27499;48.884;2.258;2022-08-21T06:30:09;19.30;99.90
41058;DHT22;27499;48.884;2.258;2022-08-21T06:32:36;19.40;99.90
41058;DHT22;27499;48.884;2.258;2022-08-21T06:35:05;19.40;99.90
41058;DHT22;27499;48.884;2.258;2022-08-21T06:37:33;19.50;99.90
41058;DHT22;27499;48.884;2.258;2022-08-21T06:39:59;19.50;99.90
41058;DHT22;27499;48.884;2.258;2022-08-21T06:42:26;19.50;99.90
41058;DHT22;27499;48.884;2.258;2022-08-21T06:44:54;19.60;99.90
41058;DHT22;27499;48.884;2.258;2022-08-21T06:47:23;19.60;99.90
41058;DHT22;27499;48.884;2.258;2022-08-21T06:49:50;19.70;99.90
41058;DHT22;27499;48.884;2.258;2022-08-21T06:52:17;19.70;99.90
41058;DHT22;27499;48.884;2.258;2022-08-21T06:54:43;19.80;99.90
41058;DHT22;27499;48.884;2.258;2022-08-21T06:57:11;19.90;99.90
41058;DHT22;27499;48.884;2.258;2022-08-21T06:59:37;19.90;99.90
41058;DHT22;27499;48.884;2.258;2022-08-21T07:02:04;19.90;99.90
41058;DHT22;27499;48.884;2.258;2022-08-21T07:04:31;20.00;99.90
41058;DHT22;27499;48.884;2.258;2022-08-21T07:06:58;20.00;99.90
41058;DHT22;27499;48.884;2.258;2022-08-21T07:09:25;20.10;99.90
41058;DHT22;27499;48.884;2.258;2022-08-21T07:11:55;20.10;99.90
41058;DHT22;27499;48.884;2.258;2022-08-21T07:14:23;20.10;99.90
41058;DHT22;27499;48.884;2.258;2022-08-21T07:16:50;20.20;99.90
41058;DHT22;27499;48.884;2.258;2022-08-21T07:19:18;20.20;99.90
41058;DHT22;27499;48.884;2.258;2022-08-21T07:21:45;20.20;99.90
41058;DHT22;27499;48.884;2.258;2022-08-21T07:24:12;20.20;99.90
41058;DHT22;27499;48.884;2.258;2022-08-21T07:26:40;20.20;99.90
41058;DHT22;27499;48.884;2.258;2022-08-21T07:29:07;20.30;99.90
41058;DHT22;27499;48.884;2.258;2022-08-21T07:31:34;20.30;99.90
41058;DHT22;27499;48.884;2.258;2022-08-21T07:34:01;20.40;99.70
41058;DHT22;27499;48.884;2.258;2022-08-21T07:36:28;20.40;99.80
41058;DHT22;27499;48.884;2.258;2022-08-21T07:38:58;20.50;99.90
41058;DHT22;27499;48.884;2.258;2022-08-21T07:41:27;20.60;99.80
41058;DHT22;27499;48.884;2.258;2022-08-21T07:43:56;20.70;99.30
41058;DHT22;27499;48.884;2.258;2022-08-21T07:46:27;20.80;99.50
41058;DHT22;27499;48.884;2.258;2022-08-21T07:48:54;20.80;99.20
41058;DHT22;27499;48.884;2.258;2022-08-21T07:51:25;20.90;99.00
41058;DHT22;27499;48.884;2.258;2022-08-21T07:53:55;21.00;98.80
41058;DHT22;27499;48.884;2.258;2022-08-21T07:56:22;21.00;98.90
41058;DHT22;27499;48.884;2.258;2022-08-21T07:58:49;21.00;98.90
41058;DHT22;27499;48.884;2.258;2022-08-21T08:01:16;21.10;99.00
41058;DHT22;27499;48.884;2.258;2022-08-21T08:03:43;21.10;99.00
41058;DHT22;27499;48.884;2.258;2022-08-21T08:06:12;21.10;98.60
41058;DHT22;27499;48.884;2.258;2022-08-21T08:08:40;21.20;98.50
41058;DHT22;27499;48.884;2.258;2022-08-21T08:11:11;21.20;98.40
41058;DHT22;27499;48.884;2.258;2022-08-21T08:13:43;21.30;98.40
41058;DHT22;27499;48.884;2.258;2022-08-21T08:16:10;21.30;97.90
41058;DHT22;27499;48.884;2.258;2022-08-21T08:18:38;21.40;97.80
41058;DHT22;27499;48.884;2.258;2022-08-21T08:21:05;21.40;97.50
41058;DHT22;27499;48.884;2.258;2022-08-21T08:23:32;21.40;98.00
41058;DHT22;27499;48.884;2.258;2022-08-21T08:26:00;21.40;97.50
41058;DHT22;27499;48.884;2.258;2022-08-21T08:28:30;21.40;98.10
41058;DHT22;27499;48.884;2.258;2022-08-21T08:31:01;21.50;97.50
41058;DHT22;27499;48.884;2.258;2022-08-21T08:33:28;21.50;97.10
41058;DHT22;27499;48.884;2.258;2022-08-21T08:35:55;21.50;97.70
41058;DHT22;27499;48.884;2.258;2022-08-21T08:38:23;21.50;97.10
41058;DHT22;27499;48.884;2.258;2022-08-21T08:41:13;21.50;97.10
41058;DHT22;27499;48.884;2.258;2022-08-21T08:43:50;21.60;97.50
41058;DHT22;27499;48.884;2.258;2022-08-21T08:46:25;21.60;97.00
41058;DHT22;27499;48.884;2.258;2022-08-21T08:49:03;21.60;98.00
41058;DHT22;27499;48.884;2.258;2022-08-21T08:51:47;21.60;96.80
41058;DHT22;27499;48.884;2.258;2022-08-21T08:54:26;21.70;97.30
41058;DHT22;27499;48.884;2.258;2022-08-21T08:57:02;21.80;97.60
41058;DHT22;27499;48.884;2.258;2022-08-21T08:59:48;21.80;97.10
41058;DHT22;27499;48.884;2.258;2022-08-21T09:02:16;21.80;97.00
41058;DHT22;27499;48.884;2.258;2022-08-21T09:04:47;21.90;96.90
41058;DHT22;27499;48.884;2.258;2022-08-21T09:10:12;21.90;96.90
41058;DHT22;27499;48.884;2.258;2022-08-21T09:12:49;21.90;96.50
41058;DHT22;27499;48.884;2.258;2022-08-21T09:15:29;21.90;97.00
41058;DHT22;27499;48.884;2.258;2022-08-21T09:26:24;22.20;96.00
41058;DHT22;27499;48.884;2.258;2022-08-21T09:28:55;22.30;96.00
41058;DHT22;27499;48.884;2.258;2022-08-21T09:31:27;22.30;95.60
41058;DHT22;27499;48.884;2.258;2022-08-21T09:34:02;22.30;95.90
41058;DHT22;27499;48.884;2.258;2022-08-21T09:36:42;22.40;95.80
41058;DHT22;27499;48.884;2.258;2022-08-21T09:39:11;22.40;95.80
41058;DHT22;27499;48.884;2.258;2022-08-21T09:41:39;22.40;95.20
41058;DHT22;27499;48.884;2.258;2022-08-21T09:44:07;22.40;94.90
41058;DHT22;27499;48.884;2.258;2022-08-21T09:46:34;22.50;95.00
41058;DHT22;27499;48.884;2.258;2022-08-21T09:49:04;22.50;95.60
41058;DHT22;27499;48.884;2.258;2022-08-21T09:51:35;22.60;95.00
41058;DHT22;27499;48.884;2.258;2022-08-21T09:56:35;22.70;94.40
41058;DHT22;27499;48.884;2.258;2022-08-21T09:59:28;22.70;94.00
41058;DHT22;27499;48.884;2.258;2022-08-21T10:02:24;22.70;93.60
41058;DHT22;27499;48.884;2.258;2022-08-21T10:04:54;22.70;93.50
41058;DHT22;27499;48.884;2.258;2022-08-21T10:07:23;22.80;93.40
41058;DHT22;27499;48.884;2.258;2022-08-21T10:12:52;22.90;93.00
41058;DHT22;27499;48.884;2.258;2022-08-21T10:18:09;22.90;93.00
41058;DHT22;27499;48.884;2.258;2022-08-21T10:28:56;22.90;93.10
41058;DHT22;27499;48.884;2.258;2022-08-21T10:31:54;22.90;93.00
41058;DHT22;27499;48.884;2.258;2022-08-21T10:45:30;22.90;93.80
41058;DHT22;27499;48.884;2.258;2022-08-21T10:48:04;22.90;93.60
41058;DHT22;27499;48.884;2.258;2022-08-21T10:50:44;23.00;94.40
41058;DHT22;27499;48.884;2.258;2022-08-21T10:55:59;23.10;93.20
41058;DHT22;27499;48.884;2.258;2022-08-21T10:58:30;23.20;95.10
41058;DHT22;27499;48.884;2.258;2022-08-21T11:01:09;23.20;93.40
41058;DHT22;27499;48.884;2.258;2022-08-21T11:03:54;23.30;92.80
41058;DHT22;27499;48.884;2.258;2022-08-21T11:06:29;23.30;92.90
41058;DHT22;27499;48.884;2.258;2022-08-21T11:09:32;23.30;92.20
41058;DHT22;27499;48.884;2.258;2022-08-21T11:11:58;23.30;92.20
41058;DHT22;27499;48.884;2.258;2022-08-21T11:17:35;23.40;91.90
41058;DHT22;27499;48.884;2.258;2022-08-21T11:20:17;23.40;92.20
41058;DHT22;27499;48.884;2.258;2022-08-21T11:22:53;23.40;92.10
41058;DHT22;27499;48.884;2.258;2022-08-21T11:25:36;23.40;91.70
41058;DHT22;27499;48.884;2.258;2022-08-21T11:28:12;23.40;91.70
41058;DHT22;27499;48.884;2.258;2022-08-21T11:44:48;23.70;93.80
41058;DHT22;27499;48.884;2.258;2022-08-21T11:50:29;23.80;93.90
41058;DHT22;27499;48.884;2.258;2022-08-21T11:55:43;23.90;92.70
41058;DHT22;27499;48.884;2.258;2022-08-21T12:00:51;23.90;92.90
41058;DHT22;27499;48.884;2.258;2022-08-21T12:03:28;24.00;92.90
41058;DHT22;27499;48.884;2.258;2022-08-21T12:06:00;24.00;93.00
41058;DHT22;27499;48.884;2.258;2022-08-21T12:11:04;24.00;91.90
41058;DHT22;27499;48.884;2.258;2022-08-21T12:13:38;24.10;92.10
41058;DHT22;27499;48.884;2.258;2022-08-21T12:16:28;24.10;92.40
41058;DHT22;27499;48.884;2.258;2022-08-21T12:21:30;24.20;94.10
41058;DHT22;27499;48.884;2.258;2022-08-21T12:24:48;24.20;93.40
41058;DHT22;27499;48.884;2.258;2022-08-21T12:27:00;24.20;93.10
41058;DHT22;27499;48.884;2.258;2022-08-21T12:29:36;24.30;92.90
41058;DHT22;27499;48.884;2.258;2022-08-21T12:40:03;24.40;93.80
41058;DHT22;27499;48.884;2.258;2022-08-21T12:42:38;24.40;93.70
41058;DHT22;27499;48.884;2.258;2022-08-21T12:45:43;24.40;93.80
41058;DHT22;27499;48.884;2.258;2022-08-21T12:48:28;24.40;94.00
41058;DHT22;27499;48.884;2.258;2022-08-21T12:50:58;24.50;94.00
41058;DHT22;27499;48.884;2.258;2022-08-21T12:53:38;24.50;94.00
41058;DHT22;27499;48.884;2.258;2022-08-21T12:56:12;24.50;94.40
41058;DHT22;27499;48.884;2.258;2022-08-21T12:58:55;24.50;95.20
41058;DHT22;27499;48.884;2.258;2022-08-21T13:01:32;24.50;95.20
41058;DHT22;27499;48.884;2.258;2022-08-21T13:04:10;24.50;95.50
41058;DHT22;27499;48.884;2.258;2022-08-21T13:06:50;24.50;95.30
41058;DHT22;27499;48.884;2.258;2022-08-21T13:09:22;24.50;95.90
41058;DHT22;27499;48.884;2.258;2022-08-21T13:11:50;24.50;95.60
41058;DHT22;27499;48.884;2.258;2022-08-21T13:14:28;24.50;95.40
41058;DHT22;27499;48.884;2.258;2022-08-21T13:16:58;24.50;94.80
41058;DHT22;27499;48.884;2.258;2022-08-21T13:19:26;24.50;94.70
41058;DHT22;27499;48.884;2.258;2022-08-21T13:21:53;24.60;95.20
41058;DHT22;27499;48.884;2.258;2022-08-21T13:24:28;24.50;95.00
41058;DHT22;27499;48.884;2.258;2022-08-21T13:27:25;24.60;95.20
41058;DHT22;27499;48.884;2.258;2022-08-21T13:32:34;24.50;95.40
41058;DHT22;27499;48.884;2.258;2022-08-21T13:35:10;24.60;95.40
41058;DHT22;27499;48.884;2.258;2022-08-21T13:37:40;24.50;94.20
41058;DHT22;27499;48.884;2.258;2022-08-21T13:40:11;24.50;93.50
41058;DHT22;27499;48.884;2.258;2022-08-21T13:42:41;24.50;93.90
41058;DHT22;27499;48.884;2.258;2022-08-21T13:45:15;24.60;94.00
41058;DHT22;27499;48.884;2.258;2022-08-21T13:47:43;24.50;93.20
41058;DHT22;27499;48.884;2.258;2022-08-21T13:50:14;24.50;93.20
41058;DHT22;27499;48.884;2.258;2022-08-21T13:52:48;24.50;94.40
41058;DHT22;27499;48.884;2.258;2022-08-21T13:55:16;24.50;95.10
41058;DHT22;27499;48.884;2.258;2022-08-21T13:57:44;24.50;95.50
41058;DHT22;27499;48.884;2.258;2022-08-21T14:00:19;24.50;96.10
41058;DHT22;27499;48.884;2.258;2022-08-21T14:02:49;24.40;96.10
41058;DHT22;27499;48.884;2.258;2022-08-21T14:05:27;24.40;96.50
41058;DHT22;27499;48.884;2.258;2022-08-21T14:08:10;24.30;95.40
41058;DHT22;27499;48.884;2.258;2022-08-21T14:10:48;24.30;94.60
41058;DHT22;27499;48.884;2.258;2022-08-21T14:13:45;24.30;95.70
41058;DHT22;27499;48.884;2.258;2022-08-21T14:16:21;24.30;96.70
41058;DHT22;27499;48.884;2.258;2022-08-21T14:21:34;24.20;97.10
41058;DHT22;27499;48.884;2.258;2022-08-21T14:24:12;24.20;96.50
41058;DHT22;27499;48.884;2.258;2022-08-21T14:29:17;24.20;96.50
41058;DHT22;27499;48.884;2.258;2022-08-21T14:31:54;24.10;95.60
41058;DHT22;27499;48.884;2.258;2022-08-21T14:34:27;24.10;94.70
41058;DHT22;27499;48.884;2.258;2022-08-21T14:37:01;24.10;94.70
41058;DHT22;27499;48.884;2.258;2022-08-21T14:39:27;24.10;96.40
41058;DHT22;27499;48.884;2.258;2022-08-21T14:41:55;24.20;95.30
41058;DHT22;27499;48.884;2.258;2022-08-21T14:44:23;24.20;94.40
41058;DHT22;27499;48.884;2.258;2022-08-21T14:46:50;24.20;95.10
41058;DHT22;27499;48.884;2.258;2022-08-21T14:49:26;24.20;94.80
41058;DHT22;27499;48.884;2.258;2022-08-21T14:51:58;24.20;95.80
41058;DHT22;27499;48.884;2.258;2022-08-21T14:54:30;24.30;95.30
41058;DHT22;27499;48.884;2.258;2022-08-21T14:57:09;24.30;94.90
41058;DHT22;27499;48.884;2.258;2022-08-21T14:59:36;24.30;95.50
41058;DHT22;27499;48.884;2.258;2022-08-21T15:02:05;24.40;94.20
41058;DHT22;27499;48.884;2.258;2022-08-21T15:04:33;24.40;93.80
41058;DHT22;27499;48.884;2.258;2022-08-21T15:07:00;24.50;93.40
41058;DHT22;27499;48.884;2.258;2022-08-21T15:09:27;24.50;92.90
41058;DHT22;27499;48.884;2.258;2022-08-21T15:11:57;24.50;93.20
41058;DHT22;27499;48.884;2.258;2022-08-21T15:14:26;24.60;92.80
41058;DHT22;27499;48.884;2.258;2022-08-21T15:16:53;24.60;92.90
41058;DHT22;27499;48.884;2.258;2022-08-21T15:19:21;24.60;92.60
41058;DHT22;27499;48.884;2.258;2022-08-21T15:21:48;24.60;92.50
41058;DHT22;27499;48.884;2.258;2022-08-21T15:24:15;24.60;92.30
41058;DHT22;27499;48.884;2.258;2022-08-21T15:26:43;24.70;92.10
41058;DHT22;27499;48.884;2.258;2022-08-21T15:29:10;24.70;93.40
41058;DHT22;27499;48.884;2.258;2022-08-21T15:31:56;24.70;93.60
41058;DHT22;27499;48.884;2.258;2022-08-21T15:34:25;24.60;93.90
41058;DHT22;27499;48.884;2.258;2022-08-21T15:36:54;24.60;93.80
41058;DHT22;27499;48.884;2.258;2022-08-21T15:39:26;24.60;94.10
41058;DHT22;27499;48.884;2.258;2022-08-21T15:41:57;24.60;93.80
41058;DHT22;27499;48.884;2.258;2022-08-21T15:44:25;24.50;94.40
41058;DHT22;27499;48.884;2.258;2022-08-21T15:46:53;24.50;94.40
41058;DHT22;27499;48.884;2.258;2022-08-21T15:49:20;24.60;93.80
41058;DHT22;27499;48.884;2.258;2022-08-21T15:51:46;24.60;92.80
41058;DHT22;27499;48.884;2.258;2022-08-21T15:54:13;24.60;91.60
41058;DHT22;27499;48.884;2.258;2022-08-21T15:56:43;24.60;91.80
41058;DHT22;27499;48.884;2.258;2022-08-21T15:59:18;24.60;91.60
41058;DHT22;27499;48.884;2.258;2022-08-21T16:01:51;24.70;89.80
41058;DHT22;27499;48.884;2.258;2022-08-21T16:04:26;24.70;90.00
41058;DHT22;27499;48.884;2.258;2022-08-21T16:06:53;24.70;90.10
41058;DHT22;27499;48.884;2.258;2022-08-21T16:09:27;24.70;88.80
41058;DHT22;27499;48.884;2.258;2022-08-21T16:11:54;24.70;89.80
41058;DHT22;27499;48.884;2.258;2022-08-21T16:14:21;24.70;90.60
41058;DHT22;27499;48.884;2.258;2022-08-21T16:16:48;24.70;90.10
41058;DHT22;27499;48.884;2.258;2022-08-21T16:19:15;24.70;90.90
41058;DHT22;27499;48.884;2.258;2022-08-21T16:21:42;24.60;91.30
41058;DHT22;27499;48.884;2.258;2022-08-21T16:24:08;24.60;90.50
41058;DHT22;27499;48.884;2.258;2022-08-21T16:26:35;24.60;90.00
41058;DHT22;27499;48.884;2.258;2022-08-21T16:29:03;24.50;89.60
41058;DHT22;27499;48.884;2.258;2022-08-21T16:31:31;24.50;90.00
41058;DHT22;27499;48.884;2.258;2022-08-21T16:33:59;24.50;90.90
41058;DHT22;27499;48.884;2.258;2022-08-21T16:36:27;24.50;90.50
41058;DHT22;27499;48.884;2.258;2022-08-21T16:38:55;24.50;90.20
41058;DHT22;27499;48.884;2.258;2022-08-21T16:41:25;24.50;91.10
41058;DHT22;27499;48.884;2.258;2022-08-21T16:43:53;24.50;90.50
41058;DHT22;27499;48.884;2.258;2022-08-21T16:46:21;24.50;90.20
41058;DHT22;27499;48.884;2.258;2022-08-21T16:48:48;24.50;88.70
41058;DHT22;27499;48.884;2.258;2022-08-21T16:51:16;24.60;88.60
41058;DHT22;27499;48.884;2.258;2022-08-21T16:53:43;24.60;88.50
41058;DHT22;27499;48.884;2.258;2022-08-21T16:56:13;24.60;88.20
41058;DHT22;27499;48.884;2.258;2022-08-21T16:58:42;24.50;88.30
41058;DHT22;27499;48.884;2.258;2022-08-21T17:01:13;24.60;88.80
41058;DHT22;27499;48.884;2.258;2022-08-21T17:03:45;24.60;88.80
41058;DHT22;27499;48.884;2.258;2022-08-21T17:06:14;24.50;89.20
41058;DHT22;27499;48.884;2.258;2022-08-21T17:08:41;24.50;89.90
41058;DHT22;27499;48.884;2.258;2022-08-21T17:11:21;24.50;89.50
41058;DHT22;27499;48.884;2.258;2022-08-21T17:14:16;24.50;90.20
41058;DHT22;27499;48.884;2.258;2022-08-21T17:16:47;24.50;90.10
41058;DHT22;27499;48.884;2.258;2022-08-21T17:19:15;24.50;90.40
41058;DHT22;27499;48.884;2.258;2022-08-21T17:21:43;24.50;89.50